createdAt,value
2023-10-07T00:01:26.805Z,59.40
2023-10-07T00:03:54.809Z,59.40
2023-10-07T00:06:28.284Z,59.50
2023-10-07T00:08:55.336Z,59.50
2023-10-07T00:11:23.313Z,59.50
2023-10-07T00:13:55.636Z,59.50
2023-10-07T00:16:25.152Z,59.40
2023-10-07T00:18:52.456Z,59.20
2023-10-07T00:21:25.644Z,59.30
2023-10-07T00:23:54.290Z,59.20
2023-10-07T00:26:21.158Z,59.10
2023-10-07T00:29:00.938Z,59.20
2023-10-07T00:31:29.793Z,59.30
2023-10-07T00:34:15.232Z,60.30
2023-10-07T00:36:42.074Z,60.50
2023-10-07T00:39:09.671Z,60.50
2023-10-07T00:41:55.318Z,60.50
2023-10-07T00:44:23.870Z,60.60
2023-10-07T00:47:04.566Z,60.80
2023-10-07T00:49:46.780Z,61.00
2023-10-07T00:52:23.570Z,60.90
2023-10-07T00:54:50.366Z,61.00
2023-10-07T00:57:35.497Z,61.20
2023-10-07T01:00:13.570Z,61.30
2023-10-07T01:02:40.598Z,62.20
2023-10-07T01:05:10.683Z,61.50
2023-10-07T01:07:37.568Z,61.60
2023-10-07T01:10:10.633Z,61.60
2023-10-07T01:12:40.382Z,61.60
2023-10-07T01:15:40.442Z,61.40
2023-10-07T01:18:07.760Z,61.30
2023-10-07T01:21:09.475Z,61.00
2023-10-07T01:23:36.685Z,61.10
2023-10-07T01:26:15.465Z,61.30
2023-10-07T01:28:45.440Z,61.50
2023-10-07T01:31:14.638Z,61.30
2023-10-07T01:33:47.158Z,60.90
2023-10-07T01:36:14.748Z,60.90
2023-10-07T01:38:45.478Z,60.80
2023-10-07T01:41:15.934Z,60.60
2023-10-07T01:43:43.072Z,60.20
2023-10-07T01:46:12.939Z,60.60
2023-10-07T01:48:40.060Z,60.60
2023-10-07T01:51:06.845Z,60.50
2023-10-07T01:53:33.627Z,60.50
2023-10-07T01:56:06.140Z,60.70
2023-10-07T01:58:33.127Z,60.90
2023-10-07T02:01:00.743Z,60.90
2023-10-07T02:03:27.660Z,60.80
2023-10-07T02:05:55.180Z,60.90
2023-10-07T02:08:24.272Z,60.90
2023-10-07T02:10:52.441Z,60.90
2023-10-07T02:13:20.687Z,61.10
2023-10-07T02:15:51.247Z,61.10
2023-10-07T02:18:18.182Z,61.10
2023-10-07T02:20:50.450Z,61.30
2023-10-07T02:23:29.502Z,61.40
2023-10-07T02:25:59.331Z,61.40
2023-10-07T02:28:30.680Z,61.40
2023-10-07T02:31:03.163Z,61.30
2023-10-07T02:33:30.546Z,61.40
2023-10-07T02:35:59.248Z,61.40
2023-10-07T02:38:42.937Z,61.40
2023-10-07T02:41:18.770Z,61.60
2023-10-07T02:43:50.268Z,61.70
2023-10-07T02:46:32.819Z,61.70
2023-10-07T02:49:07.111Z,61.90
2023-10-07T02:51:56.768Z,61.90
2023-10-07T02:54:23.900Z,61.90
2023-10-07T02:56:57.618Z,61.50
2023-10-07T02:59:32.338Z,61.40
2023-10-07T03:02:14.542Z,61.30
2023-10-07T03:04:44.880Z,61.50
2023-10-07T03:07:18.056Z,61.60
2023-10-07T03:09:53.471Z,61.60
2023-10-07T03:12:28.894Z,61.50
2023-10-07T03:15:03.009Z,61.20
2023-10-07T03:17:40.464Z,61.40
2023-10-07T03:20:26.416Z,61.40
2023-10-07T03:23:11.946Z,61.40
2023-10-07T03:25:57.391Z,61.50
2023-10-07T03:28:26.818Z,61.60
2023-10-07T03:30:53.724Z,61.50
2023-10-07T03:33:24.643Z,61.50
2023-10-07T03:35:57.651Z,61.70
2023-10-07T03:38:27.487Z,61.70
2023-10-07T03:40:57.761Z,61.60
2023-10-07T03:43:27.741Z,61.70
2023-10-07T03:45:58.193Z,61.70
2023-10-07T03:48:25.475Z,61.80
2023-10-07T03:51:09.193Z,61.90
2023-10-07T03:53:48.479Z,62.30
2023-10-07T03:56:21.789Z,62.10
2023-10-07T03:58:48.933Z,62.10
2023-10-07T04:01:18.969Z,62.10
2023-10-07T04:03:50.697Z,62.10
2023-10-07T04:06:18.568Z,62.20
2023-10-07T04:08:46.716Z,62.20
2023-10-07T04:11:18.095Z,62.30
2023-10-07T04:13:45.658Z,62.30
2023-10-07T04:16:24.445Z,62.30
2023-10-07T04:18:54.780Z,62.50
2023-10-07T04:21:25.937Z,62.60
2023-10-07T04:23:52.773Z,62.50
2023-10-07T04:26:22.160Z,62.20
2023-10-07T04:28:49.893Z,62.80
2023-10-07T04:31:17.603Z,61.80
2023-10-07T04:33:55.014Z,61.70
2023-10-07T04:36:55.772Z,62.00
2023-10-07T04:39:29.385Z,62.00
2023-10-07T04:42:08.048Z,62.00
2023-10-07T04:44:41.209Z,61.90
2023-10-07T04:47:26.462Z,61.90
2023-10-07T04:49:57.857Z,62.00
2023-10-07T04:52:30.234Z,62.10
2023-10-07T04:55:00.248Z,62.20
2023-10-07T04:57:48.899Z,62.30
2023-10-07T05:00:28.602Z,62.30
2023-10-07T05:02:59.073Z,62.20
2023-10-07T05:05:30.147Z,62.20
2023-10-07T05:08:09.854Z,62.20
2023-10-07T05:10:40.206Z,62.20
2023-10-07T05:13:10.308Z,62.20
2023-10-07T05:15:42.950Z,62.00
2023-10-07T05:18:14.115Z,62.70
2023-10-07T05:20:43.087Z,61.90
2023-10-07T05:23:15.411Z,61.90
2023-10-07T05:25:52.143Z,61.80
2023-10-07T05:28:22.825Z,61.80
2023-10-07T05:30:54.243Z,61.90
2023-10-07T05:33:28.039Z,62.70
2023-10-07T05:36:22.273Z,61.80
2023-10-07T05:38:49.095Z,62.00
2023-10-07T05:41:16.625Z,61.90
2023-10-07T05:43:44.942Z,61.90
2023-10-07T05:46:12.420Z,62.70
2023-10-07T05:48:40.141Z,61.80
2023-10-07T05:51:11.460Z,61.80
2023-10-07T05:53:42.653Z,61.80
2023-10-07T05:56:10.306Z,61.80
2023-10-07T05:58:37.855Z,61.80
2023-10-07T06:01:05.244Z,61.80
2023-10-07T06:03:32.280Z,61.80
2023-10-07T06:05:59.310Z,61.90
2023-10-07T06:08:29.730Z,61.90
2023-10-07T06:10:57.731Z,61.90
2023-10-07T06:13:24.867Z,62.80
2023-10-07T06:15:51.732Z,62.20
2023-10-07T06:18:22.591Z,62.50
2023-10-07T06:20:51.842Z,62.60
2023-10-07T06:23:25.865Z,62.50
2023-10-07T06:25:53.276Z,62.70
2023-10-07T06:28:29.542Z,62.90
2023-10-07T06:31:14.656Z,63.10
2023-10-07T06:33:42.347Z,63.00
2023-10-07T06:36:11.491Z,63.10
2023-10-07T06:38:52.681Z,63.20
2023-10-07T06:41:19.826Z,64.40
2023-10-07T06:43:51.435Z,63.60
2023-10-07T06:46:21.646Z,63.90
2023-10-07T06:48:51.716Z,64.00
2023-10-07T06:51:18.616Z,63.90
2023-10-07T06:53:45.533Z,64.00
2023-10-07T06:56:22.685Z,64.00
2023-10-07T06:58:55.028Z,64.30
2023-10-07T07:01:38.860Z,64.40
2023-10-07T07:04:12.364Z,64.70
2023-10-07T07:06:44.221Z,64.80
2023-10-07T07:09:33.538Z,64.90
2023-10-07T07:12:04.664Z,65.20
2023-10-07T07:14:32.017Z,64.90
2023-10-07T07:17:18.640Z,65.20
2023-10-07T07:19:45.708Z,65.10
2023-10-07T07:22:17.164Z,65.40
2023-10-07T07:24:44.047Z,65.70
2023-10-07T07:27:10.833Z,65.70
2023-10-07T07:29:37.549Z,65.80
2023-10-07T07:32:18.407Z,65.00
2023-10-07T07:34:46.109Z,65.10
2023-10-07T07:37:15.962Z,65.30
2023-10-07T07:39:42.794Z,65.30
2023-10-07T07:42:23.454Z,65.20
2023-10-07T07:44:59.222Z,65.50
2023-10-07T07:47:32.892Z,65.70
2023-10-07T07:50:08.642Z,65.80
2023-10-07T07:52:35.691Z,65.90
2023-10-07T07:55:02.499Z,66.00
2023-10-07T07:57:29.367Z,66.00
2023-10-07T07:59:59.289Z,66.20
2023-10-07T08:02:27.960Z,66.20
2023-10-07T08:05:04.407Z,66.20
2023-10-07T08:07:31.581Z,66.40
2023-10-07T08:10:05.277Z,66.50
2023-10-07T08:12:35.047Z,66.60
2023-10-07T08:15:23.098Z,66.70
2023-10-07T08:17:53.577Z,66.90
2023-10-07T08:20:29.531Z,67.10
2023-10-07T08:22:56.932Z,67.80
2023-10-07T08:25:39.328Z,67.10
2023-10-07T08:28:19.595Z,67.10
2023-10-07T08:30:49.820Z,67.20
2023-10-07T08:33:17.230Z,67.10
2023-10-07T08:35:44.702Z,67.30
2023-10-07T08:38:31.067Z,67.10
2023-10-07T08:41:08.883Z,67.20
2023-10-07T08:43:42.718Z,67.40
2023-10-07T08:46:10.429Z,67.40
2023-10-07T08:48:40.179Z,67.40
2023-10-07T08:51:15.453Z,67.50
2023-10-07T08:53:42.630Z,67.60
2023-10-07T08:56:14.220Z,67.50
2023-10-07T08:58:42.807Z,67.30
2023-10-07T09:01:18.305Z,67.20
2023-10-07T09:03:48.939Z,67.20
2023-10-07T09:06:16.092Z,67.40
2023-10-07T09:08:44.700Z,67.70
2023-10-07T09:11:14.599Z,67.60
2023-10-07T09:13:41.982Z,67.60
2023-10-07T09:16:11.259Z,67.50
2023-10-07T09:18:42.767Z,67.70
2023-10-07T09:21:10.735Z,67.70
2023-10-07T09:23:45.080Z,67.70
2023-10-07T09:26:22.901Z,67.80
2023-10-07T09:29:08.069Z,67.90
2023-10-07T09:31:37.129Z,67.90
2023-10-07T09:34:10.753Z,68.10
2023-10-07T09:36:41.610Z,68.00
2023-10-07T09:39:14.231Z,68.00
2023-10-07T09:41:41.169Z,67.90
2023-10-07T09:44:24.499Z,67.70
2023-10-07T09:46:54.177Z,67.80
2023-10-07T09:49:21.483Z,67.80
2023-10-07T09:51:57.658Z,67.80
2023-10-07T09:54:28.928Z,67.70
2023-10-07T09:57:22.088Z,67.70
2023-10-07T10:00:18.202Z,67.70
2023-10-07T10:02:45.131Z,67.90
2023-10-07T10:06:05.324Z,67.80
2023-10-07T10:09:00.503Z,67.70
2023-10-07T10:11:34.167Z,67.70
2023-10-07T10:14:14.027Z,67.80
2023-10-07T10:17:01.170Z,67.70
2023-10-07T10:19:30.792Z,67.60
2023-10-07T10:22:08.592Z,67.00
2023-10-07T10:24:40.386Z,67.20
2023-10-07T10:27:10.080Z,67.00
2023-10-07T10:29:54.181Z,67.00
2023-10-07T10:32:30.373Z,67.00
2023-10-07T10:35:01.905Z,66.90
2023-10-07T10:37:31.688Z,66.70
2023-10-07T10:40:06.961Z,66.70
2023-10-07T10:42:52.180Z,66.60
2023-10-07T10:45:20.440Z,66.70
2023-10-07T10:47:54.624Z,66.70
2023-10-07T10:50:24.773Z,66.60
2023-10-07T10:52:52.470Z,66.40
2023-10-07T10:55:19.987Z,66.50
2023-10-07T10:57:46.946Z,65.90
2023-10-07T11:00:23.624Z,66.00
2023-10-07T11:02:50.980Z,65.90
2023-10-07T11:05:18.138Z,65.90
2023-10-07T11:07:47.866Z,65.90
2023-10-07T11:10:21.727Z,65.70
2023-10-07T11:12:58.335Z,65.50
2023-10-07T11:15:28.825Z,65.50
2023-10-07T11:18:13.224Z,65.60
2023-10-07T11:20:44.539Z,65.40
2023-10-07T11:23:16.306Z,65.60
2023-10-07T11:25:43.603Z,65.40
2023-10-07T11:28:10.891Z,65.00
2023-10-07T11:30:48.318Z,65.30
2023-10-07T11:33:18.950Z,65.30
2023-10-07T11:36:04.692Z,65.50
2023-10-07T11:38:31.650Z,64.90
2023-10-07T11:40:58.728Z,65.00
2023-10-07T11:43:25.611Z,65.00
2023-10-07T11:45:52.450Z,65.00
2023-10-07T11:48:22.838Z,64.90
2023-10-07T11:50:49.958Z,64.60
2023-10-07T11:53:16.862Z,64.90
2023-10-07T11:55:44.083Z,65.00
2023-10-07T11:58:10.900Z,64.80
2023-10-07T12:00:38.040Z,64.90
2023-10-07T12:03:09.236Z,64.70
2023-10-07T12:05:39.092Z,64.40
2023-10-07T12:08:06.022Z,64.50
2023-10-07T12:10:37.907Z,64.00
2023-10-07T12:13:08.538Z,63.70
2023-10-07T12:15:39.211Z,63.20
2023-10-07T12:18:12.249Z,62.80
2023-10-07T12:20:39.019Z,62.20
2023-10-07T12:23:05.848Z,61.70
2023-10-07T12:25:32.837Z,60.80
2023-10-07T12:27:59.649Z,60.70
2023-10-07T12:30:27.959Z,60.60
2023-10-07T12:32:55.057Z,60.60
2023-10-07T12:35:22.621Z,60.60
2023-10-07T12:37:53.337Z,60.00
2023-10-07T12:40:20.421Z,59.70
2023-10-07T12:42:50.865Z,59.70
2023-10-07T12:45:17.662Z,59.70
2023-10-07T12:47:44.627Z,59.70
2023-10-07T12:50:30.535Z,59.90
2023-10-07T12:52:58.460Z,60.00
2023-10-07T12:55:32.570Z,60.00
2023-10-07T12:58:07.147Z,60.20
2023-10-07T13:00:35.225Z,60.50
2023-10-07T13:03:08.803Z,60.70
2023-10-07T13:05:39.055Z,60.00
2023-10-07T13:08:20.157Z,59.60
2023-10-07T13:10:47.124Z,59.60
2023-10-07T13:13:20.803Z,59.40
2023-10-07T13:15:47.589Z,59.30
2023-10-07T13:18:14.954Z,59.00
2023-10-07T13:20:41.889Z,59.00
2023-10-07T13:23:12.421Z,58.60
2023-10-07T13:25:39.209Z,58.60
2023-10-07T13:28:11.341Z,58.40
2023-10-07T13:30:38.544Z,58.20
2023-10-07T13:33:07.158Z,58.30
2023-10-07T13:35:34.819Z,58.30
2023-10-07T13:38:02.670Z,58.70
2023-10-07T13:40:31.429Z,58.70
2023-10-07T13:42:58.602Z,58.70
2023-10-07T13:45:25.915Z,58.60
2023-10-07T13:47:53.292Z,58.60
2023-10-07T13:50:26.206Z,58.60
2023-10-07T13:53:10.665Z,58.70
2023-10-07T13:55:43.810Z,58.80
2023-10-07T13:58:14.528Z,58.90
2023-10-07T14:00:47.960Z,58.90
2023-10-07T14:03:32.509Z,58.90
2023-10-07T14:06:07.646Z,59.10
2023-10-07T14:08:38.389Z,59.30
2023-10-07T14:11:08.148Z,59.20
2023-10-07T14:13:36.570Z,59.10
2023-10-07T14:16:18.823Z,59.20
2023-10-07T14:18:46.997Z,59.10
2023-10-07T14:21:19.426Z,58.40
2023-10-07T14:23:46.220Z,58.40
2023-10-07T14:26:15.636Z,58.00
2023-10-07T14:28:46.666Z,57.70
2023-10-07T14:31:18.068Z,57.70
2023-10-07T14:33:46.750Z,57.80
2023-10-07T14:36:13.662Z,57.90
2023-10-07T14:38:42.328Z,57.80
2023-10-07T14:41:09.404Z,57.40
2023-10-07T14:43:36.896Z,57.10
2023-10-07T14:46:05.754Z,57.30
2023-10-07T14:48:35.655Z,57.40
2023-10-07T14:51:10.227Z,57.30
2023-10-07T14:53:37.311Z,57.40
2023-10-07T14:56:26.202Z,57.40
2023-10-07T14:58:53.316Z,57.40
2023-10-07T15:01:25.989Z,57.40
2023-10-07T15:03:53.484Z,57.30
2023-10-07T15:06:22.663Z,57.20
2023-10-07T15:08:51.249Z,57.30
2023-10-07T15:11:19.282Z,57.50
2023-10-07T15:13:46.978Z,57.60
2023-10-07T15:16:14.104Z,57.50
2023-10-07T15:18:50.326Z,57.60
2023-10-07T15:21:18.590Z,57.50
2023-10-07T15:23:45.677Z,57.40
2023-10-07T15:26:13.311Z,57.40
2023-10-07T15:28:40.444Z,57.30
2023-10-07T15:31:10.465Z,57.20
2023-10-07T15:34:05.755Z,57.10
2023-10-07T15:36:36.921Z,57.00
2023-10-07T15:39:03.990Z,56.80
2023-10-07T15:41:31.026Z,56.60
2023-10-07T15:43:58.272Z,56.80
2023-10-07T15:46:25.193Z,56.50
2023-10-07T15:48:52.051Z,56.40
2023-10-07T15:51:19.118Z,56.50
2023-10-07T15:53:46.152Z,56.40
2023-10-07T15:56:14.431Z,56.40
2023-10-07T15:58:44.344Z,56.40
2023-10-07T16:01:12.215Z,56.40
2023-10-07T16:03:40.561Z,56.30
2023-10-07T16:06:08.697Z,56.60
2023-10-07T16:08:38.766Z,56.60
2023-10-07T16:11:09.633Z,56.70
2023-10-07T16:13:36.808Z,56.90
2023-10-07T16:16:10.468Z,57.00
2023-10-07T16:18:42.685Z,57.10
2023-10-07T16:21:15.365Z,57.20
2023-10-07T16:23:42.548Z,57.30
2023-10-07T16:26:10.043Z,57.30
2023-10-07T16:28:41.057Z,57.40
2023-10-07T16:31:08.396Z,57.40
2023-10-07T16:33:35.308Z,57.50
2023-10-07T16:36:08.335Z,57.50
2023-10-07T16:38:38.754Z,57.60
2023-10-07T16:41:07.318Z,57.60
2023-10-07T16:43:35.376Z,57.70
2023-10-07T16:46:06.577Z,57.90
2023-10-07T16:48:34.100Z,57.80
2023-10-07T16:51:05.126Z,58.00
2023-10-07T16:53:35.815Z,58.10
2023-10-07T16:56:04.419Z,58.20
2023-10-07T16:58:31.367Z,58.20
2023-10-07T17:00:58.249Z,58.10
2023-10-07T17:03:29.215Z,58.10
2023-10-07T17:05:59.898Z,58.00
2023-10-07T17:08:27.635Z,57.90
2023-10-07T17:10:55.799Z,57.90
2023-10-07T17:13:25.222Z,58.00
2023-10-07T17:15:57.266Z,58.00
2023-10-07T17:18:26.132Z,58.20
2023-10-07T17:20:53.147Z,58.50
2023-10-07T17:23:19.968Z,58.50
2023-10-07T17:25:47.072Z,58.60
2023-10-07T17:28:15.812Z,58.70
2023-10-07T17:30:46.983Z,58.60
2023-10-07T17:33:15.045Z,58.60
2023-10-07T17:35:42.692Z,58.50
2023-10-07T17:38:11.581Z,58.60
2023-10-07T17:40:39.584Z,58.60
2023-10-07T17:43:09.986Z,58.70
2023-10-07T17:45:37.708Z,58.70
2023-10-07T17:48:05.247Z,58.70
2023-10-07T17:50:33.504Z,58.70
2023-10-07T17:53:00.558Z,58.70
2023-10-07T17:55:27.829Z,58.70
2023-10-07T17:57:54.776Z,58.80
2023-10-07T18:00:31.194Z,58.80
2023-10-07T18:03:01.806Z,58.80
2023-10-07T18:05:28.870Z,59.30
2023-10-07T18:07:56.683Z,58.70
2023-10-07T18:10:24.846Z,58.80
2023-10-07T18:12:52.250Z,58.70
2023-10-07T18:15:19.653Z,58.70
2023-10-07T18:17:47.458Z,58.70
2023-10-07T18:20:14.994Z,58.80
2023-10-07T18:22:51.124Z,58.80
2023-10-07T18:25:19.914Z,58.90
2023-10-07T18:27:47.890Z,59.00
2023-10-07T18:30:16.140Z,59.00
2023-10-07T18:32:43.743Z,59.10
2023-10-07T18:35:11.179Z,59.20
2023-10-07T18:37:38.564Z,59.20
2023-10-07T18:40:06.189Z,59.30
2023-10-07T18:42:33.967Z,59.30
2023-10-07T18:45:01.094Z,59.30
2023-10-07T18:47:28.295Z,59.30
2023-10-07T18:49:55.395Z,59.50
2023-10-07T18:52:23.636Z,59.60
2023-10-07T18:54:50.803Z,59.50
2023-10-07T18:57:17.980Z,59.40
2023-10-07T18:59:47.079Z,59.50
2023-10-07T19:02:14.100Z,59.60
2023-10-07T19:04:41.011Z,59.70
2023-10-07T19:07:07.847Z,59.70
2023-10-07T19:09:36.526Z,59.80
2023-10-07T19:12:05.472Z,59.80
2023-10-07T19:14:32.848Z,60.00
2023-10-07T19:17:00.508Z,60.20
2023-10-07T19:19:27.580Z,60.40
2023-10-07T19:21:55.475Z,60.50
2023-10-07T19:24:24.573Z,60.50
2023-10-07T19:26:51.824Z,60.70
2023-10-07T19:29:18.866Z,60.80
2023-10-07T19:31:45.662Z,60.70
2023-10-07T19:34:12.561Z,60.80
2023-10-07T19:36:39.415Z,60.80
2023-10-07T19:39:06.271Z,60.80
2023-10-07T19:41:33.216Z,60.90
2023-10-07T19:44:00.205Z,60.80
2023-10-07T19:46:27.299Z,60.90
2023-10-07T19:48:54.226Z,61.10
2023-10-07T19:51:21.050Z,60.90
2023-10-07T19:53:47.935Z,61.20
2023-10-07T19:56:14.731Z,61.10
2023-10-07T19:58:41.692Z,61.10
2023-10-07T20:01:09.024Z,61.10
2023-10-07T20:03:36.274Z,61.10
2023-10-07T20:06:08.044Z,61.10
2023-10-07T20:08:34.858Z,61.10
2023-10-07T20:11:02.940Z,61.30
2023-10-07T20:13:29.859Z,61.40
2023-10-07T20:15:56.716Z,61.70
2023-10-07T20:18:23.587Z,61.60
2023-10-07T20:20:57.615Z,61.70
2023-10-07T20:23:24.531Z,61.60
2023-10-07T20:26:06.335Z,61.70
2023-10-07T20:28:33.935Z,61.90
2023-10-07T20:31:02.647Z,61.90
2023-10-07T20:33:30.405Z,61.80
2023-10-07T20:35:57.205Z,61.90
2023-10-07T20:38:24.112Z,61.90
2023-10-07T20:40:57.798Z,62.00
2023-10-07T20:43:24.737Z,62.10
2023-10-07T20:46:12.606Z,62.10
2023-10-07T20:48:41.196Z,62.20
2023-10-07T20:51:11.254Z,62.20
2023-10-07T20:53:39.422Z,62.40
2023-10-07T20:56:09.990Z,62.40
2023-10-07T20:58:37.100Z,62.50
2023-10-07T21:01:07.232Z,62.60
2023-10-07T21:03:34.496Z,62.70
2023-10-07T21:06:03.640Z,62.70
2023-10-07T21:08:31.613Z,62.70
2023-10-07T21:10:58.559Z,62.80
2023-10-07T21:13:25.344Z,62.80
2023-10-07T21:15:52.190Z,63.00
2023-10-07T21:18:19.236Z,63.00
2023-10-07T21:20:46.163Z,63.10
2023-10-07T21:23:13.508Z,63.10
2023-10-07T21:25:41.936Z,63.10
2023-10-07T21:28:10.053Z,63.20
2023-10-07T21:30:38.173Z,63.20
2023-10-07T21:33:09.157Z,63.30
2023-10-07T21:35:36.756Z,63.40
2023-10-07T21:38:04.585Z,63.30
2023-10-07T21:40:35.112Z,63.60
2023-10-07T21:43:02.392Z,63.70
2023-10-07T21:45:30.187Z,63.80
2023-10-07T21:47:57.796Z,63.90
2023-10-07T21:50:27.939Z,64.00
2023-10-07T21:52:55.133Z,64.00
2023-10-07T21:55:22.277Z,64.10
2023-10-07T21:57:49.620Z,64.20
2023-10-07T22:00:25.733Z,64.30
2023-10-07T22:02:55.274Z,64.40
2023-10-07T22:05:34.949Z,65.30
2023-10-07T22:08:02.684Z,64.50
2023-10-07T22:10:36.891Z,64.50
2023-10-07T22:13:13.137Z,64.60
2023-10-07T22:15:55.965Z,64.50
2023-10-07T22:18:24.458Z,65.20
2023-10-07T22:20:52.827Z,64.50
2023-10-07T22:23:23.787Z,64.50
2023-10-07T22:25:53.793Z,64.60
2023-10-07T22:28:21.632Z,64.60
2023-10-07T22:30:51.135Z,64.60
2023-10-07T22:33:21.176Z,64.70
2023-10-07T22:35:48.370Z,64.70
2023-10-07T22:38:18.860Z,64.60
2023-10-07T22:40:51.616Z,64.70
2023-10-07T22:43:19.220Z,64.50
2023-10-07T22:45:49.971Z,64.50
2023-10-07T22:48:21.693Z,64.60
2023-10-07T22:50:56.673Z,64.80
2023-10-07T22:53:30.975Z,64.60
2023-10-07T22:56:05.582Z,64.60
2023-10-07T22:58:39.633Z,64.50
2023-10-07T23:01:16.662Z,64.50
2023-10-07T23:03:50.530Z,64.50
2023-10-07T23:06:19.208Z,64.40
2023-10-07T23:08:59.104Z,64.50
2023-10-07T23:11:33.487Z,64.50
2023-10-07T23:14:19.543Z,64.50
2023-10-07T23:16:53.878Z,64.60
2023-10-07T23:19:22.034Z,64.60
2023-10-07T23:22:09.287Z,64.60
2023-10-07T23:24:36.048Z,64.60
2023-10-07T23:27:06.401Z,64.70
2023-10-07T23:29:45.913Z,64.70
2023-10-07T23:32:19.830Z,64.80
2023-10-07T23:34:46.763Z,64.90
2023-10-07T23:37:17.684Z,64.90
2023-10-07T23:39:48.714Z,64.90
2023-10-07T23:42:23.840Z,64.90
2023-10-07T23:44:54.365Z,64.90
2023-10-07T23:47:24.079Z,65.00
2023-10-07T23:49:58.988Z,64.90
2023-10-07T23:52:26.381Z,64.90
2023-10-07T23:55:00.223Z,65.00
2023-10-07T23:57:33.691Z,65.10
